sensor_id;sensor_type;location;lat;lon;timestamp;P1;durP1;ratioP1;P2;durP2;ratioP2
61895;SDS011;47835;52.778;5.956;2022-08-25T00:00:27;13.85;;;12.65;;
61895;SDS011;47835;52.778;5.956;2022-08-25T00:02:53;13.52;;;12.20;;
61895;SDS011;47835;52.778;5.956;2022-08-25T00:05:19;19.58;;;13.00;;
61895;SDS011;47835;52.778;5.956;2022-08-25T00:07:45;14.25;;;12.85;;
61895;SDS011;47835;52.778;5.956;2022-08-25T00:10:10;13.65;;;12.20;;
61895;SDS011;47835;52.778;5.956;2022-08-25T00:12:36;13.18;;;11.85;;
61895;SDS011;47835;52.778;5.956;2022-08-25T00:15:02;13.38;;;12.05;;
61895;SDS011;47835;52.778;5.956;2022-08-25T00:17:29;12.55;;;11.38;;
61895;SDS011;47835;52.778;5.956;2022-08-25T00:19:54;12.52;;;11.38;;
61895;SDS011;47835;52.778;5.956;2022-08-25T00:22:20;11.98;;;10.88;;
61895;SDS011;47835;52.778;5.956;2022-08-25T00:24:46;11.32;;;10.25;;
61895;SDS011;47835;52.778;5.956;2022-08-25T00:27:11;11.98;;;10.82;;
61895;SDS011;47835;52.778;5.956;2022-08-25T00:29:37;11.13;;;10.13;;
61895;SDS011;47835;52.778;5.956;2022-08-25T00:32:03;11.95;;;10.85;;
61895;SDS011;47835;52.778;5.956;2022-08-25T00:34:32;11.50;;;10.30;;
61895;SDS011;47835;52.778;5.956;2022-08-25T00:37:00;10.73;;;9.70;;
61895;SDS011;47835;52.778;5.956;2022-08-25T00:39:27;10.68;;;9.60;;
61895;SDS011;47835;52.778;5.956;2022-08-25T00:41:54;10.88;;;9.80;;
61895;SDS011;47835;52.778;5.956;2022-08-25T00:44:22;10.57;;;9.48;;
61895;SDS011;47835;52.778;5.956;2022-08-25T00:46:49;12.10;;;10.05;;
61895;SDS011;47835;52.778;5.956;2022-08-25T00:49:18;12.02;;;9.80;;
61895;SDS011;47835;52.778;5.956;2022-08-25T00:54:18;9.65;;;8.75;;
61895;SDS011;47835;52.778;5.956;2022-08-25T00:56:48;9.98;;;8.85;;
61895;SDS011;47835;52.778;5.956;2022-08-25T00:59:16;10.25;;;9.13;;
61895;SDS011;47835;52.778;5.956;2022-08-25T01:01:45;11.77;;;8.77;;
61895;SDS011;47835;52.778;5.956;2022-08-25T01:04:10;9.18;;;8.15;;
61895;SDS011;47835;52.778;5.956;2022-08-25T01:06:37;10.43;;;9.18;;
61895;SDS011;47835;52.778;5.956;2022-08-25T01:09:05;9.50;;;8.63;;
61895;SDS011;47835;52.778;5.956;2022-08-25T01:11:32;9.55;;;8.70;;
61895;SDS011;47835;52.778;5.956;2022-08-25T01:13:58;8.65;;;7.85;;
61895;SDS011;47835;52.778;5.956;2022-08-25T01:16:30;10.70;;;8.10;;
61895;SDS011;47835;52.778;5.956;2022-08-25T01:18:57;9.07;;;7.93;;
61895;SDS011;47835;52.778;5.956;2022-08-25T01:21:25;8.85;;;8.05;;
61895;SDS011;47835;52.778;5.956;2022-08-25T01:23:53;8.68;;;7.90;;
61895;SDS011;47835;52.778;5.956;2022-08-25T01:26:23;8.93;;;8.13;;
61895;SDS011;47835;52.778;5.956;2022-08-25T01:28:51;8.60;;;7.70;;
61895;SDS011;47835;52.778;5.956;2022-08-25T01:31:37;9.63;;;8.35;;
61895;SDS011;47835;52.778;5.956;2022-08-25T01:34:03;9.38;;;8.48;;
61895;SDS011;47835;52.778;5.956;2022-08-25T01:36:30;9.10;;;8.30;;
61895;SDS011;47835;52.778;5.956;2022-08-25T01:38:57;9.65;;;8.30;;
61895;SDS011;47835;52.778;5.956;2022-08-25T01:43:54;9.05;;;8.15;;
61895;SDS011;47835;52.778;5.956;2022-08-25T01:46:20;11.35;;;7.28;;
61895;SDS011;47835;52.778;5.956;2022-08-25T01:48:46;9.38;;;6.97;;
61895;SDS011;47835;52.778;5.956;2022-08-25T01:51:15;8.60;;;7.72;;
61895;SDS011;47835;52.778;5.956;2022-08-25T01:53:43;8.32;;;7.53;;
61895;SDS011;47835;52.778;5.956;2022-08-25T01:56:09;7.50;;;6.85;;
61895;SDS011;47835;52.778;5.956;2022-08-25T01:58:39;9.30;;;6.90;;
61895;SDS011;47835;52.778;5.956;2022-08-25T02:01:08;7.95;;;6.78;;
61895;SDS011;47835;52.778;5.956;2022-08-25T02:03:37;7.30;;;6.60;;
61895;SDS011;47835;52.778;5.956;2022-08-25T02:06:04;13.02;;;6.65;;
61895;SDS011;47835;52.778;5.956;2022-08-25T02:08:30;7.10;;;6.40;;
61895;SDS011;47835;52.778;5.956;2022-08-25T02:10:57;6.80;;;6.15;;
61895;SDS011;47835;52.778;5.956;2022-08-25T02:13:22;9.88;;;6.20;;
61895;SDS011;47835;52.778;5.956;2022-08-25T02:15:50;7.22;;;6.53;;
61895;SDS011;47835;52.778;5.956;2022-08-25T02:18:18;6.78;;;6.10;;
61895;SDS011;47835;52.778;5.956;2022-08-25T02:20:45;6.75;;;6.05;;
61895;SDS011;47835;52.778;5.956;2022-08-25T02:23:11;8.27;;;6.13;;
61895;SDS011;47835;52.778;5.956;2022-08-25T02:25:37;6.47;;;5.88;;
61895;SDS011;47835;52.778;5.956;2022-08-25T02:28:04;7.55;;;5.63;;
61895;SDS011;47835;52.778;5.956;2022-08-25T02:30:30;8.20;;;5.65;;
61895;SDS011;47835;52.778;5.956;2022-08-25T02:32:56;6.63;;;5.63;;
61895;SDS011;47835;52.778;5.956;2022-08-25T02:35:22;7.32;;;5.72;;
61895;SDS011;47835;52.778;5.956;2022-08-25T02:37:49;7.60;;;5.72;;
61895;SDS011;47835;52.778;5.956;2022-08-25T02:40:16;6.85;;;5.28;;
61895;SDS011;47835;52.778;5.956;2022-08-25T02:42:41;6.28;;;5.68;;
61895;SDS011;47835;52.778;5.956;2022-08-25T02:45:07;6.22;;;5.50;;
61895;SDS011;47835;52.778;5.956;2022-08-25T02:47:33;7.25;;;5.30;;
61895;SDS011;47835;52.778;5.956;2022-08-25T02:50:00;6.35;;;4.72;;
61895;SDS011;47835;52.778;5.956;2022-08-25T02:52:27;6.03;;;5.25;;
61895;SDS011;47835;52.778;5.956;2022-08-25T02:54:53;7.53;;;5.15;;
61895;SDS011;47835;52.778;5.956;2022-08-25T02:57:19;6.03;;;5.43;;
61895;SDS011;47835;52.778;5.956;2022-08-25T02:59:45;5.90;;;5.05;;
61895;SDS011;47835;52.778;5.956;2022-08-25T03:02:12;8.30;;;4.82;;
61895;SDS011;47835;52.778;5.956;2022-08-25T03:04:38;8.07;;;4.90;;
61895;SDS011;47835;52.778;5.956;2022-08-25T03:07:04;5.22;;;4.68;;
61895;SDS011;47835;52.778;5.956;2022-08-25T03:09:30;8.00;;;5.05;;
61895;SDS011;47835;52.778;5.956;2022-08-25T03:11:56;6.07;;;4.45;;
61895;SDS011;47835;52.778;5.956;2022-08-25T03:14:21;5.70;;;5.07;;
61895;SDS011;47835;52.778;5.956;2022-08-25T03:16:47;6.32;;;5.00;;
61895;SDS011;47835;52.778;5.956;2022-08-25T03:19:13;7.05;;;4.93;;
61895;SDS011;47835;52.778;5.956;2022-08-25T03:21:39;7.05;;;4.68;;
61895;SDS011;47835;52.778;5.956;2022-08-25T03:24:05;6.35;;;4.70;;
61895;SDS011;47835;52.778;5.956;2022-08-25T03:26:31;5.93;;;4.38;;
61895;SDS011;47835;52.778;5.956;2022-08-25T03:29:15;6.70;;;4.35;;
61895;SDS011;47835;52.778;5.956;2022-08-25T03:31:42;6.75;;;4.70;;
61895;SDS011;47835;52.778;5.956;2022-08-25T03:34:11;4.60;;;4.20;;
61895;SDS011;47835;52.778;5.956;2022-08-25T03:36:41;5.43;;;4.40;;
61895;SDS011;47835;52.778;5.956;2022-08-25T03:39:07;5.35;;;4.38;;
61895;SDS011;47835;52.778;5.956;2022-08-25T03:41:33;4.70;;;4.20;;
61895;SDS011;47835;52.778;5.956;2022-08-25T03:43:59;6.30;;;4.85;;
61895;SDS011;47835;52.778;5.956;2022-08-25T03:46:28;5.63;;;4.28;;
61895;SDS011;47835;52.778;5.956;2022-08-25T03:48:56;7.82;;;4.88;;
61895;SDS011;47835;52.778;5.956;2022-08-25T03:51:23;5.25;;;4.15;;
61895;SDS011;47835;52.778;5.956;2022-08-25T03:53:52;4.40;;;4.00;;
61895;SDS011;47835;52.778;5.956;2022-08-25T03:56:18;5.00;;;4.20;;
61895;SDS011;47835;52.778;5.956;2022-08-25T03:58:44;6.32;;;4.00;;
61895;SDS011;47835;52.778;5.956;2022-08-25T04:01:10;4.50;;;4.10;;
61895;SDS011;47835;52.778;5.956;2022-08-25T04:03:36;8.00;;;4.35;;
61895;SDS011;47835;52.778;5.956;2022-08-25T04:06:03;6.20;;;4.55;;
61895;SDS011;47835;52.778;5.956;2022-08-25T04:08:29;5.70;;;4.43;;
61895;SDS011;47835;52.778;5.956;2022-08-25T04:10:55;5.85;;;3.90;;
61895;SDS011;47835;52.778;5.956;2022-08-25T04:13:20;4.88;;;4.28;;
61895;SDS011;47835;52.778;5.956;2022-08-25T04:15:47;4.88;;;3.92;;
61895;SDS011;47835;52.778;5.956;2022-08-25T04:18:12;6.90;;;3.80;;
61895;SDS011;47835;52.778;5.956;2022-08-25T04:20:39;5.70;;;3.90;;
61895;SDS011;47835;52.778;5.956;2022-08-25T04:23:06;7.68;;;4.03;;
61895;SDS011;47835;52.778;5.956;2022-08-25T04:25:32;19.85;;;4.57;;
61895;SDS011;47835;52.778;5.956;2022-08-25T04:27:58;11.07;;;4.63;;
61895;SDS011;47835;52.778;5.956;2022-08-25T04:30:23;13.40;;;4.80;;
61895;SDS011;47835;52.778;5.956;2022-08-25T04:32:49;6.43;;;4.70;;
61895;SDS011;47835;52.778;5.956;2022-08-25T04:35:14;12.02;;;5.10;;
61895;SDS011;47835;52.778;5.956;2022-08-25T04:37:40;6.03;;;4.80;;
61895;SDS011;47835;52.778;5.956;2022-08-25T04:40:06;7.18;;;4.50;;
61895;SDS011;47835;52.778;5.956;2022-08-25T04:42:33;8.93;;;4.60;;
61895;SDS011;47835;52.778;5.956;2022-08-25T04:44:59;4.95;;;4.25;;
61895;SDS011;47835;52.778;5.956;2022-08-25T04:47:26;5.47;;;4.70;;
61895;SDS011;47835;52.778;5.956;2022-08-25T04:49:52;8.50;;;4.45;;
61895;SDS011;47835;52.778;5.956;2022-08-25T04:52:18;5.97;;;3.80;;
61895;SDS011;47835;52.778;5.956;2022-08-25T04:54:45;6.50;;;4.10;;
61895;SDS011;47835;52.778;5.956;2022-08-25T04:57:10;7.68;;;4.85;;
61895;SDS011;47835;52.778;5.956;2022-08-25T04:59:36;7.95;;;4.25;;
61895;SDS011;47835;52.778;5.956;2022-08-25T05:02:02;5.82;;;4.25;;
61895;SDS011;47835;52.778;5.956;2022-08-25T05:04:30;4.78;;;3.90;;
61895;SDS011;47835;52.778;5.956;2022-08-25T05:06:57;9.15;;;4.22;;
61895;SDS011;47835;52.778;5.956;2022-08-25T05:09:23;9.93;;;4.75;;
61895;SDS011;47835;52.778;5.956;2022-08-25T05:11:49;16.73;;;4.85;;
61895;SDS011;47835;52.778;5.956;2022-08-25T05:14:15;9.00;;;5.82;;
61895;SDS011;47835;52.778;5.956;2022-08-25T05:16:45;12.35;;;7.80;;
61895;SDS011;47835;52.778;5.956;2022-08-25T05:19:12;6.63;;;5.82;;
61895;SDS011;47835;52.778;5.956;2022-08-25T05:21:37;8.75;;;5.43;;
61895;SDS011;47835;52.778;5.956;2022-08-25T05:24:04;11.15;;;5.43;;
61895;SDS011;47835;52.778;5.956;2022-08-25T05:26:30;6.13;;;4.75;;
61895;SDS011;47835;52.778;5.956;2022-08-25T05:28:57;9.23;;;5.20;;
61895;SDS011;47835;52.778;5.956;2022-08-25T05:31:25;5.93;;;4.47;;
61895;SDS011;47835;52.778;5.956;2022-08-25T05:33:52;5.78;;;4.32;;
61895;SDS011;47835;52.778;5.956;2022-08-25T05:36:17;6.78;;;4.88;;
61895;SDS011;47835;52.778;5.956;2022-08-25T05:38:44;5.70;;;4.50;;
61895;SDS011;47835;52.778;5.956;2022-08-25T05:41:14;5.30;;;4.40;;
61895;SDS011;47835;52.778;5.956;2022-08-25T05:43:43;5.47;;;4.82;;
61895;SDS011;47835;52.778;5.956;2022-08-25T05:46:11;6.95;;;4.50;;
61895;SDS011;47835;52.778;5.956;2022-08-25T05:48:37;8.07;;;4.93;;
61895;SDS011;47835;52.778;5.956;2022-08-25T05:51:05;6.68;;;4.40;;
61895;SDS011;47835;52.778;5.956;2022-08-25T05:53:32;6.38;;;5.03;;
61895;SDS011;47835;52.778;5.956;2022-08-25T05:55:58;8.70;;;4.82;;
61895;SDS011;47835;52.778;5.956;2022-08-25T05:58:25;14.95;;;5.10;;
61895;SDS011;47835;52.778;5.956;2022-08-25T06:00:54;8.45;;;4.63;;
61895;SDS011;47835;52.778;5.956;2022-08-25T06:03:21;6.35;;;4.22;;
61895;SDS011;47835;52.778;5.956;2022-08-25T06:05:47;10.60;;;4.63;;
61895;SDS011;47835;52.778;5.956;2022-08-25T06:08:13;8.20;;;5.10;;
61895;SDS011;47835;52.778;5.956;2022-08-25T06:10:40;11.63;;;4.75;;
61895;SDS011;47835;52.778;5.956;2022-08-25T06:13:06;9.38;;;4.63;;
61895;SDS011;47835;52.778;5.956;2022-08-25T06:15:31;8.48;;;4.47;;
61895;SDS011;47835;52.778;5.956;2022-08-25T06:17:57;6.60;;;4.43;;
61895;SDS011;47835;52.778;5.956;2022-08-25T06:20:26;7.78;;;4.13;;
61895;SDS011;47835;52.778;5.956;2022-08-25T06:22:54;7.30;;;4.50;;
61895;SDS011;47835;52.778;5.956;2022-08-25T06:25:22;7.75;;;4.57;;
61895;SDS011;47835;52.778;5.956;2022-08-25T06:27:49;6.78;;;4.50;;
61895;SDS011;47835;52.778;5.956;2022-08-25T06:30:16;7.38;;;4.25;;
61895;SDS011;47835;52.778;5.956;2022-08-25T06:32:44;10.18;;;4.20;;
61895;SDS011;47835;52.778;5.956;2022-08-25T06:35:12;6.88;;;4.38;;
61895;SDS011;47835;52.778;5.956;2022-08-25T06:37:40;8.95;;;4.47;;
61895;SDS011;47835;52.778;5.956;2022-08-25T06:40:06;7.57;;;4.05;;
61895;SDS011;47835;52.778;5.956;2022-08-25T06:42:33;6.47;;;4.30;;
61895;SDS011;47835;52.778;5.956;2022-08-25T06:44:58;14.45;;;4.72;;
61895;SDS011;47835;52.778;5.956;2022-08-25T06:47:25;7.65;;;4.15;;
61895;SDS011;47835;52.778;5.956;2022-08-25T06:49:51;8.00;;;4.53;;
61895;SDS011;47835;52.778;5.956;2022-08-25T06:52:16;5.78;;;4.10;;
61895;SDS011;47835;52.778;5.956;2022-08-25T06:54:42;5.78;;;4.25;;
61895;SDS011;47835;52.778;5.956;2022-08-25T06:57:08;5.13;;;3.50;;
61895;SDS011;47835;52.778;5.956;2022-08-25T06:59:34;4.75;;;3.95;;
61895;SDS011;47835;52.778;5.956;2022-08-25T07:02:00;5.85;;;3.95;;
61895;SDS011;47835;52.778;5.956;2022-08-25T07:04:26;5.25;;;4.07;;
61895;SDS011;47835;52.778;5.956;2022-08-25T07:06:52;10.80;;;4.15;;
61895;SDS011;47835;52.778;5.956;2022-08-25T07:09:18;4.70;;;3.55;;
61895;SDS011;47835;52.778;5.956;2022-08-25T07:11:44;8.85;;;4.43;;
61895;SDS011;47835;52.778;5.956;2022-08-25T07:14:10;9.07;;;3.92;;
61895;SDS011;47835;52.778;5.956;2022-08-25T07:16:38;6.65;;;3.83;;
61895;SDS011;47835;52.778;5.956;2022-08-25T07:19:05;7.43;;;4.22;;
61895;SDS011;47835;52.778;5.956;2022-08-25T07:21:33;7.45;;;4.20;;
61895;SDS011;47835;52.778;5.956;2022-08-25T07:24:01;6.38;;;4.65;;
61895;SDS011;47835;52.778;5.956;2022-08-25T07:26:30;5.00;;;3.90;;
61895;SDS011;47835;52.778;5.956;2022-08-25T07:29:01;6.18;;;4.20;;
61895;SDS011;47835;52.778;5.956;2022-08-25T07:31:32;4.50;;;3.97;;
61895;SDS011;47835;52.778;5.956;2022-08-25T07:33:57;6.30;;;4.00;;
61895;SDS011;47835;52.778;5.956;2022-08-25T07:36:41;6.70;;;4.18;;
61895;SDS011;47835;52.778;5.956;2022-08-25T07:39:08;9.55;;;4.55;;
61895;SDS011;47835;52.778;5.956;2022-08-25T07:41:37;5.75;;;3.90;;
61895;SDS011;47835;52.778;5.956;2022-08-25T07:44:06;7.05;;;4.18;;
61895;SDS011;47835;52.778;5.956;2022-08-25T07:46:33;7.55;;;4.63;;
61895;SDS011;47835;52.778;5.956;2022-08-25T07:48:59;6.97;;;3.95;;
61895;SDS011;47835;52.778;5.956;2022-08-25T07:51:24;7.10;;;4.22;;
61895;SDS011;47835;52.778;5.956;2022-08-25T07:53:50;8.00;;;4.22;;
61895;SDS011;47835;52.778;5.956;2022-08-25T07:56:16;7.90;;;3.85;;
61895;SDS011;47835;52.778;5.956;2022-08-25T07:58:43;7.05;;;4.35;;
61895;SDS011;47835;52.778;5.956;2022-08-25T08:01:12;6.40;;;4.00;;
61895;SDS011;47835;52.778;5.956;2022-08-25T08:03:40;6.40;;;4.07;;
61895;SDS011;47835;52.778;5.956;2022-08-25T08:06:07;8.02;;;3.95;;
61895;SDS011;47835;52.778;5.956;2022-08-25T08:08:36;9.05;;;4.00;;
61895;SDS011;47835;52.778;5.956;2022-08-25T08:11:02;6.28;;;3.65;;
61895;SDS011;47835;52.778;5.956;2022-08-25T08:13:28;8.30;;;4.00;;
61895;SDS011;47835;52.778;5.956;2022-08-25T08:15:54;4.75;;;4.00;;
61895;SDS011;47835;52.778;5.956;2022-08-25T08:18:19;8.32;;;4.00;;
61895;SDS011;47835;52.778;5.956;2022-08-25T08:20:47;5.93;;;3.92;;
61895;SDS011;47835;52.778;5.956;2022-08-25T08:23:13;5.80;;;3.67;;
61895;SDS011;47835;52.778;5.956;2022-08-25T08:25:40;5.88;;;3.70;;
61895;SDS011;47835;52.778;5.956;2022-08-25T08:28:06;9.15;;;4.05;;
61895;SDS011;47835;52.778;5.956;2022-08-25T08:30:32;4.05;;;3.58;;
61895;SDS011;47835;52.778;5.956;2022-08-25T08:32:58;4.95;;;4.20;;
61895;SDS011;47835;52.778;5.956;2022-08-25T08:35:23;6.38;;;3.58;;
61895;SDS011;47835;52.778;5.956;2022-08-25T08:37:49;5.90;;;3.65;;
61895;SDS011;47835;52.778;5.956;2022-08-25T08:40:15;6.50;;;3.45;;
61895;SDS011;47835;52.778;5.956;2022-08-25T08:42:55;7.22;;;3.53;;
61895;SDS011;47835;52.778;5.956;2022-08-25T08:45:44;7.35;;;3.30;;
61895;SDS011;47835;52.778;5.956;2022-08-25T08:48:22;4.95;;;3.60;;
61895;SDS011;47835;52.778;5.956;2022-08-25T08:53:34;8.40;;;3.75;;
61895;SDS011;47835;52.778;5.956;2022-08-25T08:56:18;6.90;;;4.00;;
61895;SDS011;47835;52.778;5.956;2022-08-25T08:58:48;5.57;;;3.80;;
61895;SDS011;47835;52.778;5.956;2022-08-25T09:01:25;8.10;;;3.80;;
61895;SDS011;47835;52.778;5.956;2022-08-25T09:03:58;5.75;;;3.92;;
61895;SDS011;47835;52.778;5.956;2022-08-25T09:06:37;5.53;;;3.67;;
61895;SDS011;47835;52.778;5.956;2022-08-25T09:09:10;7.13;;;3.60;;
61895;SDS011;47835;52.778;5.956;2022-08-25T09:14:45;5.03;;;3.95;;
61895;SDS011;47835;52.778;5.956;2022-08-25T09:17:35;6.03;;;3.80;;
61895;SDS011;47835;52.778;5.956;2022-08-25T09:23:06;4.95;;;3.22;;
61895;SDS011;47835;52.778;5.956;2022-08-25T09:33:30;6.38;;;3.42;;
61895;SDS011;47835;52.778;5.956;2022-08-25T09:35:57;5.82;;;3.40;;
61895;SDS011;47835;52.778;5.956;2022-08-25T09:38:24;4.43;;;3.15;;
61895;SDS011;47835;52.778;5.956;2022-08-25T09:40:53;4.40;;;3.20;;
61895;SDS011;47835;52.778;5.956;2022-08-25T09:43:28;4.07;;;3.25;;
61895;SDS011;47835;52.778;5.956;2022-08-25T09:46:18;5.25;;;3.40;;
61895;SDS011;47835;52.778;5.956;2022-08-25T09:51:35;4.38;;;3.22;;
61895;SDS011;47835;52.778;5.956;2022-08-25T09:54:24;6.70;;;3.20;;
61895;SDS011;47835;52.778;5.956;2022-08-25T09:56:57;7.25;;;3.40;;
61895;SDS011;47835;52.778;5.956;2022-08-25T09:59:32;6.22;;;3.08;;
61895;SDS011;47835;52.778;5.956;2022-08-25T10:02:04;3.22;;;2.80;;
61895;SDS011;47835;52.778;5.956;2022-08-25T10:04:47;5.03;;;2.95;;
61895;SDS011;47835;52.778;5.956;2022-08-25T10:07:21;4.35;;;2.90;;
61895;SDS011;47835;52.778;5.956;2022-08-25T10:09:52;3.65;;;2.65;;
61895;SDS011;47835;52.778;5.956;2022-08-25T10:12:21;3.92;;;3.20;;
61895;SDS011;47835;52.778;5.956;2022-08-25T10:14:52;5.03;;;2.63;;
61895;SDS011;47835;52.778;5.956;2022-08-25T10:20:39;3.30;;;2.58;;
61895;SDS011;47835;52.778;5.956;2022-08-25T10:22:44;4.40;;;2.72;;
61895;SDS011;47835;52.778;5.956;2022-08-25T10:25:12;5.03;;;2.58;;
61895;SDS011;47835;52.778;5.956;2022-08-25T10:28:03;4.65;;;2.60;;
61895;SDS011;47835;52.778;5.956;2022-08-25T10:30:47;4.47;;;2.97;;
61895;SDS011;47835;52.778;5.956;2022-08-25T10:34:10;5.05;;;2.92;;
61895;SDS011;47835;52.778;5.956;2022-08-25T10:36:19;7.43;;;2.92;;
61895;SDS011;47835;52.778;5.956;2022-08-25T10:39:12;4.28;;;2.58;;
61895;SDS011;47835;52.778;5.956;2022-08-25T10:42:02;3.15;;;2.42;;
61895;SDS011;47835;52.778;5.956;2022-08-25T10:44:47;5.38;;;2.70;;
61895;SDS011;47835;52.778;5.956;2022-08-25T10:50:12;5.45;;;2.60;;
61895;SDS011;47835;52.778;5.956;2022-08-25T10:53:07;5.45;;;2.83;;
61895;SDS011;47835;52.778;5.956;2022-08-25T11:01:42;4.90;;;2.47;;
61895;SDS011;47835;52.778;5.956;2022-08-25T11:07:19;3.78;;;2.47;;
61895;SDS011;47835;52.778;5.956;2022-08-25T11:09:50;3.05;;;2.30;;
61895;SDS011;47835;52.778;5.956;2022-08-25T11:15:32;4.72;;;2.20;;
61895;SDS011;47835;52.778;5.956;2022-08-25T11:18:12;3.05;;;2.30;;
61895;SDS011;47835;52.778;5.956;2022-08-25T11:23:14;5.20;;;2.30;;
61895;SDS011;47835;52.778;5.956;2022-08-25T11:25:51;4.15;;;2.20;;
61895;SDS011;47835;52.778;5.956;2022-08-25T11:28:32;4.35;;;2.13;;
61895;SDS011;47835;52.778;5.956;2022-08-25T11:31:06;2.80;;;1.92;;
61895;SDS011;47835;52.778;5.956;2022-08-25T11:33:33;2.90;;;2.15;;
61895;SDS011;47835;52.778;5.956;2022-08-25T11:36:04;2.92;;;2.08;;
61895;SDS011;47835;52.778;5.956;2022-08-25T11:39:00;3.78;;;2.25;;
61895;SDS011;47835;52.778;5.956;2022-08-25T11:41:41;3.85;;;2.30;;
61895;SDS011;47835;52.778;5.956;2022-08-25T11:50:23;5.40;;;2.30;;
61895;SDS011;47835;52.778;5.956;2022-08-25T12:00:55;8.63;;;2.00;;
61895;SDS011;47835;52.778;5.956;2022-08-25T12:14:14;4.78;;;2.50;;
61895;SDS011;47835;52.778;5.956;2022-08-25T12:19:47;4.82;;;2.38;;
61895;SDS011;47835;52.778;5.956;2022-08-25T12:30:23;4.43;;;2.45;;
61895;SDS011;47835;52.778;5.956;2022-08-25T12:35:38;6.63;;;2.15;;
61895;SDS011;47835;52.778;5.956;2022-08-25T12:38:42;5.22;;;2.35;;
61895;SDS011;47835;52.778;5.956;2022-08-25T12:41:19;3.67;;;1.98;;
61895;SDS011;47835;52.778;5.956;2022-08-25T12:43:48;4.38;;;1.80;;
61895;SDS011;47835;52.778;5.956;2022-08-25T12:48:54;4.10;;;2.50;;
61895;SDS011;47835;52.778;5.956;2022-08-25T12:54:24;5.68;;;2.53;;
61895;SDS011;47835;52.778;5.956;2022-08-25T12:59:48;3.70;;;2.72;;
61895;SDS011;47835;52.778;5.956;2022-08-25T13:10:55;6.18;;;2.47;;
61895;SDS011;47835;52.778;5.956;2022-08-25T13:13:47;3.30;;;2.45;;
61895;SDS011;47835;52.778;5.956;2022-08-25T13:16:29;3.20;;;2.20;;
61895;SDS011;47835;52.778;5.956;2022-08-25T13:18:57;4.68;;;2.40;;
61895;SDS011;47835;52.778;5.956;2022-08-25T13:21:29;3.33;;;1.98;;
61895;SDS011;47835;52.778;5.956;2022-08-25T13:24:08;4.55;;;2.15;;
61895;SDS011;47835;52.778;5.956;2022-08-25T13:26:40;2.95;;;2.00;;
61895;SDS011;47835;52.778;5.956;2022-08-25T13:31:33;5.15;;;2.60;;
61895;SDS011;47835;52.778;5.956;2022-08-25T13:34:01;4.40;;;2.33;;
61895;SDS011;47835;52.778;5.956;2022-08-25T13:36:41;5.28;;;2.40;;
61895;SDS011;47835;52.778;5.956;2022-08-25T13:39:27;5.63;;;2.10;;
61895;SDS011;47835;52.778;5.956;2022-08-25T13:41:55;4.07;;;2.30;;
61895;SDS011;47835;52.778;5.956;2022-08-25T13:44:22;5.03;;;2.60;;
61895;SDS011;47835;52.778;5.956;2022-08-25T13:47:06;6.22;;;2.75;;
61895;SDS011;47835;52.778;5.956;2022-08-25T13:51:58;4.18;;;2.33;;
61895;SDS011;47835;52.778;5.956;2022-08-25T13:54:26;3.92;;;2.38;;
61895;SDS011;47835;52.778;5.956;2022-08-25T13:57:02;6.03;;;2.22;;
61895;SDS011;47835;52.778;5.956;2022-08-25T13:59:35;3.47;;;2.17;;
61895;SDS011;47835;52.778;5.956;2022-08-25T14:02:03;3.78;;;2.58;;
61895;SDS011;47835;52.778;5.956;2022-08-25T14:09:44;6.03;;;2.10;;
61895;SDS011;47835;52.778;5.956;2022-08-25T14:15:03;5.63;;;2.20;;
61895;SDS011;47835;52.778;5.956;2022-08-25T14:20:54;4.68;;;2.33;;
61895;SDS011;47835;52.778;5.956;2022-08-25T14:23:24;7.03;;;2.42;;
61895;SDS011;47835;52.778;5.956;2022-08-25T14:25:54;3.17;;;2.22;;
61895;SDS011;47835;52.778;5.956;2022-08-25T14:28:23;10.38;;;2.25;;
61895;SDS011;47835;52.778;5.956;2022-08-25T14:30:51;9.52;;;2.47;;
61895;SDS011;47835;52.778;5.956;2022-08-25T14:33:20;6.90;;;3.22;;
61895;SDS011;47835;52.778;5.956;2022-08-25T14:35:51;8.63;;;2.20;;
61895;SDS011;47835;52.778;5.956;2022-08-25T14:38:18;3.00;;;2.00;;
61895;SDS011;47835;52.778;5.956;2022-08-25T14:40:45;3.47;;;2.10;;
61895;SDS011;47835;52.778;5.956;2022-08-25T14:43:12;5.25;;;2.17;;
61895;SDS011;47835;52.778;5.956;2022-08-25T14:45:39;3.80;;;2.17;;
61895;SDS011;47835;52.778;5.956;2022-08-25T14:48:07;3.25;;;1.90;;
61895;SDS011;47835;52.778;5.956;2022-08-25T14:50:37;3.08;;;2.10;;
61895;SDS011;47835;52.778;5.956;2022-08-25T14:53:03;5.28;;;1.85;;
61895;SDS011;47835;52.778;5.956;2022-08-25T14:55:29;3.03;;;2.40;;
61895;SDS011;47835;52.778;5.956;2022-08-25T14:57:55;3.83;;;2.05;;
61895;SDS011;47835;52.778;5.956;2022-08-25T15:00:21;3.22;;;2.22;;
61895;SDS011;47835;52.778;5.956;2022-08-25T15:02:47;4.38;;;2.40;;
61895;SDS011;47835;52.778;5.956;2022-08-25T15:05:15;6.43;;;2.40;;
61895;SDS011;47835;52.778;5.956;2022-08-25T15:07:45;6.07;;;2.63;;
61895;SDS011;47835;52.778;5.956;2022-08-25T15:10:29;3.00;;;2.15;;
61895;SDS011;47835;52.778;5.956;2022-08-25T15:12:55;6.18;;;2.20;;
61895;SDS011;47835;52.778;5.956;2022-08-25T15:15:20;5.10;;;2.35;;
61895;SDS011;47835;52.778;5.956;2022-08-25T15:17:50;49.47;;;46.45;;
61895;SDS011;47835;52.778;5.956;2022-08-25T15:20:16;32.45;;;30.10;;
61895;SDS011;47835;52.778;5.956;2022-08-25T15:22:42;177.93;;;165.55;;
61895;SDS011;47835;52.778;5.956;2022-08-25T15:25:09;130.40;;;121.30;;
61895;SDS011;47835;52.778;5.956;2022-08-25T15:27:35;79.22;;;73.35;;
61895;SDS011;47835;52.778;5.956;2022-08-25T15:30:01;109.80;;;102.35;;
61895;SDS011;47835;52.778;5.956;2022-08-25T15:32:27;111.70;;;104.03;;
61895;SDS011;47835;52.778;5.956;2022-08-25T15:34:53;77.25;;;71.85;;
61895;SDS011;47835;52.778;5.956;2022-08-25T15:37:18;67.78;;;62.50;;
61895;SDS011;47835;52.778;5.956;2022-08-25T15:39:44;75.43;;;68.80;;
61895;SDS011;47835;52.778;5.956;2022-08-25T15:42:11;93.88;;;84.28;;
61895;SDS011;47835;52.778;5.956;2022-08-25T15:44:38;92.22;;;82.70;;
61895;SDS011;47835;52.778;5.956;2022-08-25T15:47:04;100.85;;;90.75;;
61895;SDS011;47835;52.778;5.956;2022-08-25T15:49:30;78.10;;;70.15;;
61895;SDS011;47835;52.778;5.956;2022-08-25T15:51:55;68.40;;;61.45;;
61895;SDS011;47835;52.778;5.956;2022-08-25T15:54:21;68.80;;;62.05;;
61895;SDS011;47835;52.778;5.956;2022-08-25T15:56:48;61.88;;;55.47;;
61895;SDS011;47835;52.778;5.956;2022-08-25T15:59:13;55.45;;;49.97;;
61895;SDS011;47835;52.778;5.956;2022-08-25T16:01:40;60.10;;;53.85;;
61895;SDS011;47835;52.778;5.956;2022-08-25T16:04:05;47.58;;;39.58;;
61895;SDS011;47835;52.778;5.956;2022-08-25T16:06:31;41.28;;;37.28;;
61895;SDS011;47835;52.778;5.956;2022-08-25T16:08:58;33.70;;;30.23;;
61895;SDS011;47835;52.778;5.956;2022-08-25T16:11:26;35.22;;;31.13;;
61895;SDS011;47835;52.778;5.956;2022-08-25T16:13:53;36.15;;;32.58;;
61895;SDS011;47835;52.778;5.956;2022-08-25T16:16:20;28.63;;;25.65;;
61895;SDS011;47835;52.778;5.956;2022-08-25T16:18:48;30.02;;;26.88;;
61895;SDS011;47835;52.778;5.956;2022-08-25T16:21:14;27.83;;;25.00;;
61895;SDS011;47835;52.778;5.956;2022-08-25T16:23:43;25.23;;;22.80;;
61895;SDS011;47835;52.778;5.956;2022-08-25T16:26:10;27.65;;;24.55;;
61895;SDS011;47835;52.778;5.956;2022-08-25T16:28:37;23.17;;;20.38;;
61895;SDS011;47835;52.778;5.956;2022-08-25T16:31:04;22.92;;;20.67;;
61895;SDS011;47835;52.778;5.956;2022-08-25T16:33:30;17.58;;;15.82;;
61895;SDS011;47835;52.778;5.956;2022-08-25T16:36:04;19.10;;;16.92;;
61895;SDS011;47835;52.778;5.956;2022-08-25T16:38:39;18.45;;;16.52;;
61895;SDS011;47835;52.778;5.956;2022-08-25T16:41:06;18.60;;;15.63;;
61895;SDS011;47835;52.778;5.956;2022-08-25T16:43:32;17.38;;;15.68;;
61895;SDS011;47835;52.778;5.956;2022-08-25T16:46:03;13.00;;;11.63;;
61895;SDS011;47835;52.778;5.956;2022-08-25T16:48:31;14.65;;;13.07;;
61895;SDS011;47835;52.778;5.956;2022-08-25T16:50:57;22.58;;;12.82;;